createdAt,value
2023-03-29T00:02:04.663Z,4.74
2023-03-29T00:04:31.572Z,4.89
2023-03-29T00:07:04.777Z,4.81
2023-03-29T00:09:33.326Z,4.95
2023-03-29T00:12:01.566Z,4.75
2023-03-29T00:14:30.905Z,4.77
2023-03-29T00:16:59.165Z,4.83
2023-03-29T00:19:26.435Z,4.71
2023-03-29T00:21:53.206Z,4.84
2023-03-29T00:24:21.329Z,4.96
2023-03-29T00:26:48.540Z,5.10
2023-03-29T00:29:15.679Z,4.75
2023-03-29T00:31:42.584Z,4.73
2023-03-29T00:34:09.434Z,4.47
2023-03-29T00:36:36.154Z,4.73
2023-03-29T00:39:02.783Z,4.51
2023-03-29T00:41:29.553Z,4.35
2023-03-29T00:44:00.587Z,4.61
2023-03-29T00:46:29.910Z,4.67
2023-03-29T00:49:09.070Z,4.66
2023-03-29T00:51:38.628Z,4.35
2023-03-29T00:54:09.498Z,4.32
2023-03-29T00:56:40.517Z,4.20
2023-03-29T00:59:13.184Z,4.29
2023-03-29T01:01:46.471Z,4.25
2023-03-29T01:04:18.721Z,4.25
2023-03-29T01:06:56.243Z,4.32
2023-03-29T01:09:27.244Z,4.24
2023-03-29T01:11:57.884Z,4.46
2023-03-29T01:14:36.790Z,4.48
2023-03-29T01:17:04.570Z,4.50
2023-03-29T01:19:39.111Z,4.38
2023-03-29T01:22:38.695Z,4.25
2023-03-29T01:25:11.365Z,3.99
2023-03-29T01:27:53.324Z,3.90
2023-03-29T01:30:30.588Z,3.94
2023-03-29T01:33:04.346Z,3.88
2023-03-29T01:35:40.125Z,3.98
2023-03-29T01:38:15.881Z,3.98
2023-03-29T01:40:42.877Z,4.19
2023-03-29T01:43:29.932Z,4.10
2023-03-29T01:46:28.341Z,4.19
2023-03-29T01:48:59.555Z,3.90
2023-03-29T01:51:36.204Z,4.09
2023-03-29T01:54:06.075Z,3.90
2023-03-29T01:56:37.813Z,3.68
2023-03-29T01:59:09.733Z,3.76
2023-03-29T02:01:40.766Z,3.60
2023-03-29T02:04:13.235Z,3.44
2023-03-29T02:06:41.691Z,3.47
2023-03-29T02:09:09.175Z,3.50
2023-03-29T02:11:37.024Z,3.42
2023-03-29T02:14:03.821Z,3.13
2023-03-29T02:16:36.879Z,3.20
2023-03-29T02:19:04.095Z,3.17
2023-03-29T02:21:53.649Z,3.23
2023-03-29T02:24:25.047Z,3.20
2023-03-29T02:26:51.872Z,3.26
2023-03-29T02:29:18.682Z,3.24
2023-03-29T02:32:04.783Z,3.00
2023-03-29T02:34:40.170Z,2.87
2023-03-29T02:37:13.487Z,2.83
2023-03-29T02:39:41.265Z,2.89
2023-03-29T02:42:09.529Z,3.02
2023-03-29T02:44:40.212Z,2.86
2023-03-29T02:47:15.155Z,2.95
2023-03-29T02:49:41.856Z,2.76
2023-03-29T02:52:16.996Z,2.84
2023-03-29T02:54:48.024Z,2.83
2023-03-29T02:57:14.733Z,2.84
2023-03-29T02:59:44.288Z,2.82
2023-03-29T03:02:12.398Z,2.75
2023-03-29T03:04:39.206Z,2.66
2023-03-29T03:07:05.906Z,2.70
2023-03-29T03:09:32.688Z,2.64
2023-03-29T03:11:59.504Z,2.61
2023-03-29T03:14:28.215Z,2.80
2023-03-29T03:16:55.356Z,2.88
2023-03-29T03:19:22.419Z,2.76
2023-03-29T03:21:49.602Z,2.53
2023-03-29T03:24:17.791Z,2.52
2023-03-29T03:26:46.377Z,2.40
2023-03-29T03:29:14.435Z,2.56
2023-03-29T03:31:41.476Z,2.75
2023-03-29T03:34:11.420Z,2.81
2023-03-29T03:36:38.061Z,2.65
2023-03-29T03:39:07.216Z,2.42
2023-03-29T03:41:34.549Z,2.54
2023-03-29T03:44:01.824Z,2.72
2023-03-29T03:46:29.733Z,2.60
2023-03-29T03:48:56.673Z,2.60
2023-03-29T03:51:23.373Z,2.72
2023-03-29T03:53:50.089Z,2.85
2023-03-29T03:56:16.835Z,2.59
2023-03-29T03:58:43.647Z,2.68
2023-03-29T04:01:10.417Z,2.66
2023-03-29T04:03:37.719Z,2.51
2023-03-29T04:06:05.245Z,2.41
2023-03-29T04:08:32.085Z,2.26
2023-03-29T04:10:59.857Z,2.17
2023-03-29T04:13:27.330Z,2.05
2023-03-29T04:15:55.789Z,1.87
2023-03-29T04:18:24.142Z,1.91
2023-03-29T04:20:51.098Z,1.88
2023-03-29T04:23:18.454Z,1.95
2023-03-29T04:25:45.211Z,1.91
2023-03-29T04:28:13.107Z,1.98
2023-03-29T04:30:40.210Z,2.07
2023-03-29T04:33:06.929Z,2.09
2023-03-29T04:35:33.706Z,2.21
2023-03-29T04:38:00.572Z,2.32
2023-03-29T04:40:27.430Z,2.36
2023-03-29T04:42:54.530Z,2.53
2023-03-29T04:45:21.463Z,2.67
2023-03-29T04:47:48.367Z,2.43
2023-03-29T04:50:15.791Z,2.76
2023-03-29T04:52:43.232Z,2.63
2023-03-29T04:55:11.717Z,2.59
2023-03-29T04:57:38.720Z,2.70
2023-03-29T05:00:14.683Z,2.72
2023-03-29T05:02:45.036Z,2.78
2023-03-29T05:05:12.266Z,2.89
2023-03-29T05:07:39.434Z,3.12
2023-03-29T05:10:06.910Z,3.17
2023-03-29T05:12:33.637Z,3.35
2023-03-29T05:15:00.438Z,3.31
2023-03-29T05:17:27.564Z,3.46
2023-03-29T05:19:54.446Z,3.60
2023-03-29T05:22:21.795Z,3.38
2023-03-29T05:24:48.656Z,3.66
2023-03-29T05:27:17.238Z,3.51
2023-03-29T05:29:48.017Z,3.63
2023-03-29T05:32:15.017Z,3.88
2023-03-29T05:34:41.773Z,4.11
2023-03-29T05:37:08.486Z,4.32
2023-03-29T05:39:37.494Z,4.31
2023-03-29T05:42:04.763Z,4.89
2023-03-29T05:44:31.591Z,5.40
2023-03-29T05:46:58.566Z,5.73
2023-03-29T05:49:25.565Z,5.86
2023-03-29T05:51:52.434Z,6.33
2023-03-29T05:54:20.799Z,6.23
2023-03-29T05:56:47.516Z,6.35
2023-03-29T05:59:14.183Z,6.24
2023-03-29T06:01:41.877Z,6.43
2023-03-29T06:04:08.790Z,6.73
2023-03-29T06:06:36.451Z,6.56
2023-03-29T06:09:04.136Z,6.17
2023-03-29T06:11:31.657Z,5.49
2023-03-29T06:13:59.094Z,5.31
2023-03-29T06:16:26.267Z,5.03
2023-03-29T06:18:53.374Z,4.60
2023-03-29T06:21:20.085Z,4.52
2023-03-29T06:23:46.751Z,4.62
2023-03-29T06:26:13.841Z,5.09
2023-03-29T06:28:40.678Z,5.54
2023-03-29T06:31:10.201Z,5.93
2023-03-29T06:33:38.250Z,6.86
2023-03-29T06:36:05.285Z,6.65
2023-03-29T06:38:32.022Z,6.85
2023-03-29T06:41:07.192Z,7.42
2023-03-29T06:43:34.850Z,7.45
2023-03-29T06:46:02.107Z,7.07
2023-03-29T06:48:29.519Z,7.14
2023-03-29T06:50:56.590Z,7.91
2023-03-29T06:53:23.467Z,7.73
2023-03-29T06:55:51.977Z,6.97
2023-03-29T06:58:18.709Z,7.56
2023-03-29T07:00:45.908Z,7.40
2023-03-29T07:03:20.118Z,8.24
2023-03-29T07:05:47.673Z,8.35
2023-03-29T07:08:16.528Z,8.11
2023-03-29T07:10:47.574Z,8.12
2023-03-29T07:13:15.721Z,8.57
2023-03-29T07:15:43.691Z,8.62
2023-03-29T07:18:11.650Z,8.79
2023-03-29T07:20:42.650Z,9.15
2023-03-29T07:23:10.004Z,9.16
2023-03-29T07:25:37.379Z,9.00
2023-03-29T07:28:04.756Z,9.43
2023-03-29T07:30:32.739Z,9.56
2023-03-29T07:33:00.575Z,10.06
2023-03-29T07:35:28.193Z,9.30
2023-03-29T07:37:55.948Z,9.72
2023-03-29T07:40:26.421Z,9.36
2023-03-29T07:42:56.677Z,9.58
2023-03-29T07:45:26.618Z,8.75
2023-03-29T07:47:59.700Z,8.14
2023-03-29T07:50:27.795Z,8.27
2023-03-29T07:52:54.570Z,8.08
2023-03-29T07:55:22.238Z,8.33
2023-03-29T07:57:49.638Z,8.95
2023-03-29T08:00:17.489Z,8.40
2023-03-29T08:02:46.161Z,8.15
2023-03-29T08:05:17.524Z,8.17
2023-03-29T08:07:47.963Z,7.75
2023-03-29T08:10:22.137Z,7.65
2023-03-29T08:12:50.495Z,7.81
2023-03-29T08:15:17.289Z,7.63
2023-03-29T08:17:44.590Z,7.32
2023-03-29T08:20:15.072Z,7.08
2023-03-29T08:22:42.226Z,6.96
2023-03-29T08:25:09.421Z,7.56
2023-03-29T08:27:37.602Z,8.06
2023-03-29T08:30:09.536Z,7.93
2023-03-29T08:32:37.535Z,7.62
2023-03-29T08:35:06.738Z,7.49
2023-03-29T08:37:33.525Z,7.05
2023-03-29T08:40:01.078Z,7.02
2023-03-29T08:42:46.525Z,7.09
2023-03-29T08:45:24.411Z,7.26
2023-03-29T08:48:21.608Z,7.67
2023-03-29T08:50:52.928Z,7.37
2023-03-29T08:54:04.133Z,7.59
2023-03-29T08:56:34.884Z,7.15
2023-03-29T08:59:02.373Z,6.92
2023-03-29T09:01:35.483Z,7.21
2023-03-29T09:04:21.007Z,7.09
2023-03-29T09:06:47.800Z,6.80
2023-03-29T09:09:21.847Z,6.93
2023-03-29T09:12:09.797Z,6.88
2023-03-29T09:14:51.370Z,6.84
2023-03-29T09:17:36.178Z,6.86
2023-03-29T09:20:24.012Z,6.89
2023-03-29T09:23:15.637Z,7.15
2023-03-29T09:25:54.268Z,7.02
2023-03-29T09:28:37.115Z,7.44
2023-03-29T09:31:07.589Z,8.34
2023-03-29T09:33:43.328Z,8.39
2023-03-29T09:36:23.751Z,8.32
2023-03-29T09:38:54.566Z,7.62
2023-03-29T09:41:46.662Z,7.55
2023-03-29T09:44:30.186Z,7.46
2023-03-29T09:47:07.706Z,7.53
2023-03-29T09:49:41.397Z,8.53
2023-03-29T09:52:17.074Z,9.43
2023-03-29T09:54:44.427Z,9.71
2023-03-29T09:57:17.396Z,8.97
2023-03-29T09:59:50.065Z,8.64
2023-03-29T10:02:20.427Z,8.36
2023-03-29T10:04:55.380Z,7.58
2023-03-29T10:07:22.797Z,8.48
2023-03-29T10:09:52.065Z,9.30
2023-03-29T10:12:20.071Z,10.18
2023-03-29T10:14:53.625Z,10.79
2023-03-29T10:17:28.142Z,11.64
2023-03-29T10:20:03.875Z,10.90
2023-03-29T10:22:37.874Z,10.87
2023-03-29T10:25:12.802Z,11.31
2023-03-29T10:27:41.898Z,11.31
2023-03-29T10:30:13.200Z,11.56
2023-03-29T10:32:41.407Z,11.32
2023-03-29T10:35:25.099Z,11.41
2023-03-29T10:37:55.262Z,12.04
2023-03-29T10:40:30.879Z,11.88
2023-03-29T10:43:12.274Z,11.79
2023-03-29T10:45:40.265Z,11.65
2023-03-29T10:48:11.730Z,11.86
2023-03-29T10:50:38.644Z,10.84
2023-03-29T10:53:14.737Z,11.52
2023-03-29T10:55:54.514Z,11.18
2023-03-29T10:59:01.976Z,11.81
2023-03-29T11:01:46.793Z,12.03
2023-03-29T11:04:13.513Z,11.05
2023-03-29T11:06:52.656Z,11.04
2023-03-29T11:09:37.939Z,10.60
2023-03-29T11:12:15.953Z,10.77
2023-03-29T11:15:17.240Z,11.03
2023-03-29T11:17:59.053Z,9.54
2023-03-29T11:20:42.059Z,9.78
2023-03-29T11:23:40.381Z,10.08
2023-03-29T11:26:30.019Z,10.23
2023-03-29T11:29:12.085Z,10.33
2023-03-29T11:32:05.694Z,9.12
2023-03-29T11:34:44.977Z,8.84
2023-03-29T11:37:35.799Z,8.76
2023-03-29T11:40:08.363Z,8.51
2023-03-29T11:42:39.165Z,8.68
2023-03-29T11:45:12.133Z,9.02
2023-03-29T11:47:43.032Z,8.68
2023-03-29T11:50:19.833Z,8.72
2023-03-29T11:52:54.260Z,8.49
2023-03-29T11:55:39.431Z,8.15
2023-03-29T11:58:08.868Z,8.68
2023-03-29T12:00:40.549Z,8.95
2023-03-29T12:03:14.396Z,10.47
2023-03-29T12:05:57.170Z,10.95
2023-03-29T12:09:08.658Z,10.77
2023-03-29T12:11:41.775Z,9.61
2023-03-29T12:14:21.389Z,10.43
2023-03-29T12:17:01.327Z,10.45
2023-03-29T12:19:43.297Z,10.60
2023-03-29T12:22:10.674Z,10.98
2023-03-29T12:24:41.734Z,10.92
2023-03-29T12:27:20.827Z,10.27
2023-03-29T12:30:22.186Z,9.64
2023-03-29T12:32:58.903Z,9.24
2023-03-29T12:35:52.565Z,8.74
2023-03-29T12:38:22.126Z,8.77
2023-03-29T12:40:55.935Z,9.47
2023-03-29T12:43:40.626Z,9.74
2023-03-29T12:46:14.756Z,10.12
2023-03-29T12:48:42.838Z,10.16
2023-03-29T12:51:17.248Z,9.49
2023-03-29T12:53:55.735Z,9.54
2023-03-29T12:56:34.964Z,9.69
2023-03-29T12:59:10.814Z,10.20
2023-03-29T13:01:41.481Z,10.86
2023-03-29T13:04:21.672Z,11.30
2023-03-29T13:07:05.806Z,11.21
2023-03-29T13:09:49.005Z,10.33
2023-03-29T13:12:15.905Z,9.98
2023-03-29T13:14:51.966Z,9.54
2023-03-29T13:17:38.660Z,9.18
2023-03-29T13:20:32.344Z,9.44
2023-03-29T13:23:04.902Z,10.83
2023-03-29T13:25:46.644Z,11.56
2023-03-29T13:28:28.313Z,10.43
2023-03-29T13:30:59.623Z,10.35
2023-03-29T13:33:26.327Z,10.29
2023-03-29T13:36:03.772Z,9.96
2023-03-29T13:38:35.504Z,9.23
2023-03-29T13:41:12.324Z,9.16
2023-03-29T13:43:42.209Z,9.57
2023-03-29T13:46:44.281Z,9.49
2023-03-29T13:49:29.527Z,8.79
2023-03-29T13:52:17.236Z,8.87
2023-03-29T13:55:10.695Z,9.92
2023-03-29T13:58:02.782Z,10.99
2023-03-29T14:00:38.890Z,9.80
2023-03-29T14:03:09.715Z,9.51
2023-03-29T14:05:40.089Z,9.75
2023-03-29T14:08:16.998Z,11.00
2023-03-29T14:10:45.508Z,11.03
2023-03-29T14:13:18.327Z,10.08
2023-03-29T14:15:50.702Z,9.62
2023-03-29T14:18:22.579Z,9.74
2023-03-29T14:20:54.975Z,9.53
2023-03-29T14:23:25.292Z,9.38
2023-03-29T14:25:52.092Z,9.02
2023-03-29T14:28:29.009Z,8.71
2023-03-29T14:30:56.719Z,8.47
2023-03-29T14:33:33.564Z,8.72
2023-03-29T14:36:05.131Z,8.68
2023-03-29T14:38:32.503Z,8.32
2023-03-29T14:41:00.974Z,8.31
2023-03-29T14:43:31.119Z,8.46
2023-03-29T14:46:00.416Z,8.53
2023-03-29T14:48:28.145Z,8.41
2023-03-29T14:50:55.126Z,8.51
2023-03-29T14:53:23.763Z,8.53
2023-03-29T14:55:53.174Z,8.51
2023-03-29T14:58:29.307Z,8.56
2023-03-29T15:00:56.104Z,8.48
2023-03-29T15:03:26.415Z,8.24
2023-03-29T15:06:02.902Z,8.48
2023-03-29T15:08:36.531Z,8.49
2023-03-29T15:11:10.858Z,8.43
2023-03-29T15:13:41.745Z,8.58
2023-03-29T15:16:12.083Z,8.63
2023-03-29T15:18:41.839Z,8.56
2023-03-29T15:21:10.784Z,8.59
2023-03-29T15:23:42.214Z,8.47
2023-03-29T15:26:14.117Z,8.40
2023-03-29T15:28:55.853Z,8.29
2023-03-29T15:31:32.659Z,8.47
2023-03-29T15:34:09.543Z,8.15
2023-03-29T15:36:42.312Z,7.97
2023-03-29T15:39:12.643Z,8.23
2023-03-29T15:41:40.003Z,8.23
2023-03-29T15:44:07.414Z,8.24
2023-03-29T15:46:34.223Z,8.21
2023-03-29T15:49:00.976Z,8.14
2023-03-29T15:51:27.817Z,8.31
2023-03-29T15:53:54.573Z,8.34
2023-03-29T15:56:23.003Z,8.42
2023-03-29T15:58:49.984Z,8.37
2023-03-29T16:01:33.977Z,8.25
2023-03-29T16:04:02.712Z,8.31
2023-03-29T16:06:29.470Z,8.22
2023-03-29T16:08:57.455Z,8.14
2023-03-29T16:11:24.650Z,8.00
2023-03-29T16:13:51.689Z,8.11
2023-03-29T16:16:18.538Z,8.18
2023-03-29T16:18:45.845Z,8.04
2023-03-29T16:21:18.234Z,7.94
2023-03-29T16:23:48.121Z,7.82
2023-03-29T16:26:16.725Z,7.79
2023-03-29T16:28:43.785Z,7.79
2023-03-29T16:31:12.477Z,7.96
2023-03-29T16:33:40.842Z,7.74
2023-03-29T16:36:08.360Z,7.77
2023-03-29T16:38:35.525Z,7.63
2023-03-29T16:41:02.622Z,7.54
2023-03-29T16:43:29.328Z,7.69
2023-03-29T16:45:57.091Z,7.53
2023-03-29T16:48:24.058Z,7.56
2023-03-29T16:50:51.087Z,7.57
2023-03-29T16:53:18.801Z,7.37
2023-03-29T16:55:46.819Z,7.12
2023-03-29T16:58:13.633Z,7.17
2023-03-29T17:00:40.944Z,7.15
2023-03-29T17:03:08.105Z,7.12
2023-03-29T17:05:41.320Z,7.12
2023-03-29T17:08:10.084Z,6.81
2023-03-29T17:10:39.940Z,6.78
2023-03-29T17:13:06.881Z,6.38
2023-03-29T17:15:34.067Z,6.69
2023-03-29T17:18:01.471Z,6.43
2023-03-29T17:20:28.286Z,6.64
2023-03-29T17:22:56.114Z,6.54
2023-03-29T17:25:23.945Z,6.39
2023-03-29T17:27:51.164Z,6.24
2023-03-29T17:30:18.228Z,6.42
2023-03-29T17:32:45.896Z,6.31
2023-03-29T17:35:13.379Z,6.22
2023-03-29T17:37:42.011Z,6.12
2023-03-29T17:40:10.528Z,6.23
2023-03-29T17:42:37.397Z,6.21
2023-03-29T17:45:04.526Z,6.02
2023-03-29T17:47:31.259Z,6.02
2023-03-29T17:49:58.051Z,5.84
2023-03-29T17:52:24.763Z,5.94
2023-03-29T17:54:51.482Z,5.95
2023-03-29T17:57:18.275Z,5.94
2023-03-29T17:59:44.972Z,5.92
2023-03-29T18:02:17.829Z,5.92
2023-03-29T18:04:44.850Z,6.17
2023-03-29T18:07:11.833Z,5.90
2023-03-29T18:09:38.546Z,5.85
2023-03-29T18:12:05.622Z,5.94
2023-03-29T18:14:32.446Z,5.77
2023-03-29T18:16:59.303Z,5.66
2023-03-29T18:19:26.211Z,5.69
2023-03-29T18:21:53.119Z,5.61
2023-03-29T18:24:19.860Z,5.49
2023-03-29T18:26:46.607Z,5.52
2023-03-29T18:29:13.679Z,5.49
2023-03-29T18:31:40.645Z,5.63
2023-03-29T18:34:07.471Z,5.82
2023-03-29T18:36:34.602Z,5.99
2023-03-29T18:39:05.846Z,5.79
2023-03-29T18:41:34.197Z,5.85
2023-03-29T18:44:01.094Z,5.83
2023-03-29T18:46:31.166Z,5.78
2023-03-29T18:48:58.818Z,5.80
2023-03-29T18:51:28.857Z,5.46
2023-03-29T18:53:56.096Z,5.38
2023-03-29T18:56:23.398Z,5.35
2023-03-29T18:58:50.577Z,5.33
2023-03-29T19:01:17.749Z,5.41
2023-03-29T19:03:44.786Z,5.45
2023-03-29T19:06:11.966Z,5.37
2023-03-29T19:08:41.232Z,5.31
2023-03-29T19:11:10.734Z,5.38
2023-03-29T19:13:37.802Z,5.37
2023-03-29T19:16:05.243Z,5.30
2023-03-29T19:18:32.518Z,5.18
2023-03-29T19:20:59.216Z,5.21
2023-03-29T19:23:28.246Z,5.23
2023-03-29T19:25:57.448Z,5.26
2023-03-29T19:28:24.875Z,5.32
2023-03-29T19:30:51.791Z,5.25
2023-03-29T19:33:18.711Z,5.13
2023-03-29T19:35:45.778Z,5.10
2023-03-29T19:38:12.721Z,5.13
2023-03-29T19:40:39.426Z,5.42
2023-03-29T19:43:06.309Z,5.31
2023-03-29T19:45:33.014Z,5.59
2023-03-29T19:48:03.167Z,5.59
2023-03-29T19:50:31.675Z,5.53
2023-03-29T19:52:58.631Z,5.20
2023-03-29T19:55:26.544Z,5.05
2023-03-29T19:57:53.209Z,5.18
2023-03-29T20:00:24.547Z,5.22
2023-03-29T20:02:55.703Z,5.16
2023-03-29T20:05:24.111Z,5.09
2023-03-29T20:07:50.835Z,5.18
2023-03-29T20:10:17.596Z,5.13
2023-03-29T20:12:44.330Z,4.72
2023-03-29T20:15:11.278Z,4.46
2023-03-29T20:20:12.850Z,4.47
2023-03-29T20:22:42.260Z,4.16
2023-03-29T20:25:09.533Z,4.13
2023-03-29T20:27:36.268Z,4.11
2023-03-29T20:30:03.964Z,4.26
2023-03-29T20:32:30.922Z,4.22
2023-03-29T20:34:57.731Z,3.91
2023-03-29T20:37:25.996Z,3.53
2023-03-29T20:39:53.248Z,3.62
2023-03-29T20:42:24.522Z,3.46
2023-03-29T20:44:51.413Z,3.07
2023-03-29T20:47:19.305Z,3.08
2023-03-29T20:49:46.427Z,2.79
2023-03-29T20:52:17.275Z,2.94
2023-03-29T20:54:45.400Z,2.88
2023-03-29T20:57:15.904Z,2.62
2023-03-29T20:59:43.886Z,2.38
2023-03-29T21:02:21.181Z,2.24
2023-03-29T21:04:52.227Z,2.03
2023-03-29T21:07:20.225Z,2.17
2023-03-29T21:09:50.457Z,1.89
2023-03-29T21:12:17.720Z,1.57
2023-03-29T21:14:44.902Z,1.49
2023-03-29T21:17:11.668Z,1.37
2023-03-29T21:19:39.540Z,1.46
2023-03-29T21:22:06.806Z,1.57
2023-03-29T21:24:33.904Z,1.54
2023-03-29T21:27:00.741Z,1.53
2023-03-29T21:29:27.860Z,1.23
2023-03-29T21:31:55.007Z,1.26
2023-03-29T21:34:22.468Z,0.83
2023-03-29T21:36:49.493Z,1.02
2023-03-29T21:39:16.374Z,1.05
2023-03-29T21:41:43.187Z,0.90
2023-03-29T21:44:09.941Z,0.72
2023-03-29T21:46:36.674Z,0.86
2023-03-29T21:49:03.488Z,0.92
2023-03-29T21:51:30.248Z,0.67
2023-03-29T21:53:56.990Z,0.53
2023-03-29T21:56:23.722Z,0.58
2023-03-29T21:58:51.065Z,-0.08
2023-03-29T22:01:17.984Z,-0.05
2023-03-29T22:03:44.830Z,0.17
2023-03-29T22:06:13.908Z,0.14
2023-03-29T22:08:40.906Z,-0.05
2023-03-29T22:11:11.076Z,0.00
2023-03-29T22:13:37.949Z,-0.21
2023-03-29T22:16:05.449Z,0.05
2023-03-29T22:18:44.176Z,-0.10
2023-03-29T22:21:22.538Z,-0.39
2023-03-29T22:23:55.085Z,-0.36
2023-03-29T22:26:23.878Z,-0.15
2023-03-29T22:28:51.761Z,-0.17
2023-03-29T22:31:20.736Z,-0.06
2023-03-29T22:33:48.085Z,-0.14
2023-03-29T22:36:23.420Z,-0.01
2023-03-29T22:38:51.522Z,0.18
2023-03-29T22:41:19.629Z,0.23
2023-03-29T22:43:47.079Z,0.39
2023-03-29T22:46:14.436Z,0.40
2023-03-29T22:48:41.556Z,0.31
2023-03-29T22:51:08.453Z,0.37
2023-03-29T22:53:35.369Z,0.21
2023-03-29T22:56:02.306Z,0.38
2023-03-29T22:58:31.906Z,0.47
2023-03-29T23:00:58.901Z,0.54
2023-03-29T23:03:25.660Z,0.41
2023-03-29T23:05:55.223Z,0.54
2023-03-29T23:08:23.470Z,0.37
2023-03-29T23:10:50.385Z,0.20
2023-03-29T23:13:24.199Z,0.24
2023-03-29T23:15:52.082Z,0.26
2023-03-29T23:18:21.139Z,0.48
2023-03-29T23:20:49.663Z,0.45
2023-03-29T23:23:17.318Z,0.44
2023-03-29T23:25:45.801Z,0.26
2023-03-29T23:28:13.230Z,0.23
2023-03-29T23:30:40.960Z,0.25
2023-03-29T23:33:07.870Z,0.26
2023-03-29T23:35:34.802Z,0.25
2023-03-29T23:38:01.804Z,0.40
2023-03-29T23:40:28.821Z,0.27
2023-03-29T23:42:59.693Z,0.40
2023-03-29T23:45:28.115Z,0.26
2023-03-29T23:47:55.357Z,0.17
2023-03-29T23:50:22.769Z,0.16
2023-03-29T23:52:51.729Z,0.25
2023-03-29T23:55:18.946Z,0.28
2023-03-29T23:57:45.842Z,0.33
